Time;durP1;ratioP1;P1;durP2;ratioP2;P2;SDS_P1;SDS_P2;PMS_P1;PMS_P2;Temp;Humidity;BMP_temperature;BMP_pressure;BME280_temperature;BME280_humidity;BME280_pressure;Samples;Min_cycle;Max_cycle;Signal;HPM_P1;HPM_P2
2023/09/23 00:00:08;;;;;;;7.93;2.22;;;21.80;97.00;;;;;;6307899;22;19995;-74
2023/09/23 00:02:36;;;;;;;13.60;2.60;;;21.80;96.90;;;;;;6307461;22;20417;-74
2023/09/23 00:05:02;;;;;;;17.75;2.10;;;21.90;97.00;;;;;;6307507;22;20048;-73
2023/09/23 00:07:28;;;;;;;8.10;2.03;;;21.90;97.20;;;;;;6307842;22;20375;-73
2023/09/23 00:09:54;;;;;;;8.40;2.55;;;21.90;97.40;;;;;;6307603;22;20053;-73
2023/09/23 00:12:20;;;;;;;9.02;1.98;;;21.80;97.60;;;;;;6307211;22;20310;-73
2023/09/23 00:14:46;;;;;;;12.77;2.00;;;21.80;97.70;;;;;;6307274;22;20098;-73
2023/09/23 00:17:12;;;;;;;12.75;2.78;;;21.80;97.70;;;;;;6280037;22;20030;-73
2023/09/23 00:19:40;;;;;;;10.25;1.95;;;21.80;97.70;;;;;;6307138;22;20413;-74
2023/09/23 00:22:05;;;;;;;6.63;1.98;;;21.80;97.70;;;;;;6306983;22;20421;-73
2023/09/23 00:24:33;;;;;;;6.82;1.98;;;21.80;97.70;;;;;;6307030;22;20000;-74
2023/09/23 00:26:59;;;;;;;10.13;1.88;;;21.80;97.60;;;;;;6307295;22;20035;-74
2023/09/23 00:29:28;;;;;;;9.75;2.00;;;21.70;97.50;;;;;;6306653;22;20433;-73
2023/09/23 00:31:54;;;;;;;8.05;2.10;;;21.70;97.50;;;;;;6306443;22;20022;-74
2023/09/23 00:34:23;;;;;;;9.75;2.38;;;21.70;97.50;;;;;;6307007;22;20052;-73
2023/09/23 00:36:50;;;;;;;10.18;2.13;;;21.70;97.50;;;;;;6307411;22;20017;-73
2023/09/23 00:39:17;;;;;;;17.77;2.58;;;21.70;97.50;;;;;;6307378;22;20019;-74
2023/09/23 00:41:43;;;;;;;11.45;2.17;;;21.70;97.70;;;;;;6306812;22;20006;-73
2023/09/23 00:44:10;;;;;;;7.15;2.15;;;21.70;97.40;;;;;;6307459;22;20023;-74
2023/09/23 00:46:37;;;;;;;12.52;1.98;;;21.60;97.50;;;;;;6307349;22;20007;-73
2023/09/23 00:49:07;;;;;;;11.13;2.40;;;21.60;97.60;;;;;;6307097;22;19999;-74
2023/09/23 00:51:34;;;;;;;12.77;2.40;;;21.60;97.80;;;;;;6307167;22;20092;-72
2023/09/23 00:54:07;;;;;;;7.80;1.83;;;21.50;97.80;;;;;;6307758;22;20004;-74
2023/09/23 00:56:36;;;;;;;9.77;1.80;;;21.50;97.90;;;;;;6307548;22;20027;-73
2023/09/23 00:59:06;;;;;;;8.10;2.22;;;21.50;98.00;;;;;;6304151;22;20003;-73
2023/09/23 01:01:32;;;;;;;8.70;2.13;;;21.50;98.10;;;;;;6303656;22;20003;-73
2023/09/23 01:03:58;;;;;;;11.07;2.30;;;21.40;98.10;;;;;;6303656;22;20443;-74
2023/09/23 01:06:27;;;;;;;9.60;2.20;;;21.40;98.10;;;;;;6306439;22;20010;-73
2023/09/23 01:08:56;;;;;;;10.38;2.17;;;21.40;98.10;;;;;;6306520;22;20008;-73
2023/09/23 01:11:23;;;;;;;6.90;1.92;;;21.40;98.00;;;;;;6306954;22;20091;-73
2023/09/23 01:13:51;;;;;;;12.85;2.40;;;21.40;98.00;;;;;;6306593;22;20003;-73
2023/09/23 01:16:17;;;;;;;10.65;2.22;;;21.40;97.90;;;;;;6307018;22;20003;-74
2023/09/23 01:18:46;;;;;;;8.30;2.22;;;21.30;97.80;;;;;;6306736;22;20068;-74
2023/09/23 01:21:12;;;;;;;8.98;2.25;;;21.40;97.80;;;;;;6307035;22;20004;-73
2023/09/23 01:23:38;;;;;;;6.47;1.98;;;21.30;97.90;;;;;;6307108;22;19996;-73
2023/09/23 01:26:04;;;;;;;8.73;2.05;;;21.30;97.90;;;;;;6306850;22;20026;-73
2023/09/23 01:28:33;;;;;;;11.60;2.20;;;21.30;98.10;;;;;;6306550;22;20425;-73
2023/09/23 01:31:03;;;;;;;7.53;1.80;;;21.30;98.20;;;;;;6306659;22;20391;-73
2023/09/23 01:33:29;;;;;;;10.13;2.70;;;21.30;98.20;;;;;;6306816;22;19999;-75
2023/09/23 01:35:57;;;;;;;11.75;2.28;;;21.30;98.30;;;;;;6306261;22;19999;-74
2023/09/23 01:38:24;;;;;;;9.65;2.30;;;21.30;98.40;;;;;;6306804;22;19999;-74
2023/09/23 01:40:51;;;;;;;12.18;2.05;;;21.20;98.50;;;;;;6307242;22;19999;-74
2023/09/23 01:43:17;;;;;;;9.35;2.20;;;21.30;98.50;;;;;;6308695;22;20137;-74
2023/09/23 01:45:44;;;;;;;11.15;2.50;;;21.30;98.60;;;;;;6308856;22;20006;-74
2023/09/23 01:48:10;;;;;;;7.63;2.08;;;21.20;98.60;;;;;;6308876;22;20074;-74
2023/09/23 01:50:35;;;;;;;10.00;2.30;;;21.20;98.60;;;;;;6308564;22;20046;-73
2023/09/23 01:53:01;;;;;;;9.15;2.42;;;21.20;98.70;;;;;;6308795;22;20333;-74
2023/09/23 01:55:28;;;;;;;6.57;1.92;;;21.20;98.70;;;;;;6308944;22;20002;-74
2023/09/23 01:57:54;;;;;;;8.20;2.10;;;21.20;98.80;;;;;;6308774;22;20003;-73
2023/09/23 02:00:28;;;;;;;13.63;2.30;;;21.20;98.90;;;;;;6309078;22;20432;-73
2023/09/23 02:02:54;;;;;;;10.77;2.55;;;21.20;99.00;;;;;;6309051;22;20057;-73
2023/09/23 02:05:27;;;;;;;6.00;1.75;;;21.20;99.00;;;;;;6309000;22;20007;-73
2023/09/23 02:07:53;;;;;;;11.18;2.10;;;21.20;98.90;;;;;;6308659;22;20002;-73
2023/09/23 02:10:29;;;;;;;6.57;2.08;;;21.20;98.90;;;;;;6308600;22;20006;-72
2023/09/23 02:12:57;;;;;;;9.30;2.00;;;21.20;98.90;;;;;;6308526;22;20310;-73
2023/09/23 02:15:23;;;;;;;11.25;2.10;;;21.10;98.90;;;;;;6308411;22;20011;-73
2023/09/23 02:17:49;;;;;;;10.30;2.97;;;21.10;98.90;;;;;;6308746;22;20025;-73
2023/09/23 02:20:19;;;;;;;9.27;2.58;;;21.10;99.00;;;;;;6281188;22;20379;-74
2023/09/23 02:22:49;;;;;;;11.32;2.00;;;21.10;99.00;;;;;;6308573;22;20364;-74
2023/09/23 02:25:16;;;;;;;11.57;2.80;;;21.10;99.10;;;;;;6308789;22;20090;-74
2023/09/23 02:27:46;;;;;;;8.27;1.98;;;21.10;99.10;;;;;;6281115;22;19995;-73
2023/09/23 02:30:13;;;;;;;16.08;2.35;;;21.10;99.10;;;;;;6308379;22;19999;-74
2023/09/23 02:32:41;;;;;;;8.23;1.92;;;21.10;99.20;;;;;;6308060;22;20018;-74
2023/09/23 02:35:11;;;;;;;10.40;2.95;;;21.10;99.20;;;;;;6280731;22;20005;-73
2023/09/23 02:37:40;;;;;;;9.05;2.05;;;21.10;99.20;;;;;;6308792;22;19999;-74
2023/09/23 02:40:27;;;;;;;12.93;2.60;;;21.10;99.30;;;;;;6308689;22;20006;-73
2023/09/23 02:42:53;;;;;;;6.78;2.17;;;21.10;99.30;;;;;;6308262;22;20003;-74
2023/09/23 02:45:20;;;;;;;13.85;2.38;;;21.10;99.30;;;;;;6308058;22;20012;-74
2023/09/23 02:47:46;;;;;;;10.85;2.60;;;21.10;99.40;;;;;;6308247;22;20307;-73
2023/09/23 02:50:13;;;;;;;11.30;2.38;;;21.10;99.40;;;;;;6308498;22;20027;-74
2023/09/23 02:52:40;;;;;;;9.75;2.22;;;21.10;99.30;;;;;;6308208;22;20012;-74
2023/09/23 02:55:07;;;;;;;11.38;2.38;;;21.10;99.30;;;;;;6308174;22;20432;-73
2023/09/23 02:57:37;;;;;;;8.30;1.88;;;21.00;99.30;;;;;;6309152;22;20011;-74
2023/09/23 03:00:16;;;;;;;11.20;2.20;;;21.00;99.30;;;;;;6308254;22;20075;-73
2023/09/23 03:02:50;;;;;;;9.55;2.05;;;21.10;99.30;;;;;;6308111;22;20003;-73
2023/09/23 03:05:16;;;;;;;8.52;2.45;;;21.00;99.20;;;;;;6307969;22;19999;-73
2023/09/23 03:07:49;;;;;;;9.25;1.90;;;21.00;99.20;;;;;;6308258;22;20007;-74
2023/09/23 03:10:19;;;;;;;9.93;2.08;;;21.00;99.20;;;;;;6308264;22;19995;-74
2023/09/23 03:12:51;;;;;;;9.25;1.83;;;21.00;99.20;;;;;;6308010;22;20007;-73
2023/09/23 03:15:20;;;;;;;7.85;2.47;;;21.00;99.20;;;;;;6307423;22;20460;-73
2023/09/23 03:17:51;;;;;;;13.57;2.40;;;21.00;99.30;;;;;;6307933;22;20045;-74
2023/09/23 03:20:21;;;;;;;12.77;2.22;;;20.90;99.20;;;;;;6307635;22;20006;-74
2023/09/23 03:22:52;;;;;;;8.35;2.05;;;20.90;99.20;;;;;;6308543;22;20003;-74
2023/09/23 03:25:19;;;;;;;9.02;1.98;;;21.00;99.30;;;;;;6307842;22;20007;-74
2023/09/23 03:27:47;;;;;;;6.20;1.77;;;20.90;99.20;;;;;;6307911;22;20007;-74
2023/09/23 03:30:13;;;;;;;12.60;1.77;;;21.00;99.20;;;;;;6307935;22;20003;-74
2023/09/23 03:32:39;;;;;;;7.22;2.00;;;20.90;99.20;;;;;;6307774;22;20011;-73
2023/09/23 03:35:09;;;;;;;8.07;2.10;;;20.90;99.20;;;;;;6307872;22;20006;-72
2023/09/23 03:37:36;;;;;;;9.50;2.35;;;20.90;99.20;;;;;;6307968;22;20448;-73
2023/09/23 03:40:07;;;;;;;10.80;1.80;;;20.90;99.30;;;;;;6307841;22;20068;-73
2023/09/23 03:42:34;;;;;;;7.47;2.00;;;20.90;99.30;;;;;;6307727;22;19999;-72
2023/09/23 03:45:00;;;;;;;12.45;2.28;;;20.90;99.30;;;;;;6307902;22;19995;-73
2023/09/23 03:47:25;;;;;;;11.32;2.50;;;20.90;99.30;;;;;;6307912;22;20494;-74
2023/09/23 03:49:51;;;;;;;8.52;2.17;;;20.90;99.40;;;;;;6307812;22;20029;-74
2023/09/23 03:52:17;;;;;;;10.45;2.47;;;20.90;99.50;;;;;;6280071;22;20011;-73
2023/09/23 03:54:43;;;;;;;8.40;2.25;;;20.80;99.50;;;;;;6307755;22;20026;-74
2023/09/23 03:57:08;;;;;;;9.77;2.05;;;20.90;99.60;;;;;;6307814;22;20003;-72
2023/09/23 03:59:36;;;;;;;9.82;2.83;;;20.90;99.70;;;;;;6307187;22;20364;-74
2023/09/23 04:02:01;;;;;;;13.10;2.00;;;20.90;99.70;;;;;;6280400;22;20337;-72
2023/09/23 04:04:27;;;;;;;5.20;1.77;;;20.80;99.70;;;;;;6307517;22;20003;-74
2023/09/23 04:06:53;;;;;;;12.27;2.60;;;20.90;99.80;;;;;;6307554;22;20006;-73
2023/09/23 04:09:18;;;;;;;11.63;2.50;;;20.90;99.70;;;;;;6307130;22;20003;-73
2023/09/23 04:11:46;;;;;;;8.05;2.03;;;20.90;99.80;;;;;;6307166;22;20042;-72
2023/09/23 04:14:12;;;;;;;8.10;2.55;;;20.90;99.80;;;;;;6307122;22;20037;-73
2023/09/23 04:16:37;;;;;;;8.70;2.33;;;20.90;99.80;;;;;;6279945;22;20387;-74
2023/09/23 04:19:03;;;;;;;8.55;2.05;;;20.80;99.90;;;;;;6307257;22;20078;-72
2023/09/23 04:21:31;;;;;;;7.45;1.80;;;20.80;99.90;;;;;;6307707;22;20011;-72
2023/09/23 04:24:00;;;;;;;19.10;2.45;;;20.80;99.90;;;;;;6307367;22;20361;-74
2023/09/23 04:26:26;;;;;;;7.45;2.10;;;20.80;99.90;;;;;;6307753;22;20003;-72
2023/09/23 04:28:52;;;;;;;8.95;2.35;;;20.80;99.90;;;;;;6306778;22;20333;-73
2023/09/23 04:31:18;;;;;;;13.50;2.13;;;20.80;99.90;;;;;;6307032;22;20485;-72
2023/09/23 04:33:45;;;;;;;6.82;2.20;;;20.80;99.90;;;;;;6306899;22;19999;-73
2023/09/23 04:36:11;;;;;;;8.80;2.00;;;20.80;99.90;;;;;;6307384;22;20052;-73
2023/09/23 04:38:37;;;;;;;8.65;2.30;;;20.80;99.90;;;;;;6307107;22;20030;-73
2023/09/23 04:41:02;;;;;;;7.20;2.30;;;20.80;99.90;;;;;;6307390;22;20045;-74
2023/09/23 04:43:30;;;;;;;9.27;2.20;;;20.80;99.90;;;;;;6307270;22;20083;-73
2023/09/23 04:45:57;;;;;;;10.18;2.20;;;20.80;99.90;;;;;;6307607;22;20049;-74
2023/09/23 04:48:24;;;;;;;7.53;2.22;;;20.80;99.90;;;;;;6280111;22;20096;-72
2023/09/23 04:50:52;;;;;;;10.73;2.10;;;20.70;99.90;;;;;;6307266;22;20007;-74
2023/09/23 04:53:18;;;;;;;8.95;2.33;;;20.70;99.90;;;;;;6307413;22;20003;-73
2023/09/23 04:55:45;;;;;;;17.10;2.65;;;20.80;99.90;;;;;;6307160;22;20302;-73
2023/09/23 04:58:12;;;;;;;9.20;2.15;;;20.70;99.90;;;;;;6307373;22;20402;-73
2023/09/23 05:00:40;;;;;;;13.10;2.28;;;20.70;99.90;;;;;;6307241;22;20326;-74
2023/09/23 05:03:08;;;;;;;8.52;2.38;;;20.70;99.90;;;;;;6307288;22;19999;-73
2023/09/23 05:05:34;;;;;;;7.88;2.10;;;20.70;99.90;;;;;;6306807;22;20074;-74
2023/09/23 05:08:06;;;;;;;9.07;2.38;;;20.70;99.90;;;;;;6307042;22;20054;-74
2023/09/23 05:10:32;;;;;;;7.27;2.23;;;20.70;99.90;;;;;;6307333;22;19999;-74
2023/09/23 05:12:58;;;;;;;8.98;2.42;;;20.70;99.90;;;;;;6307601;22;20018;-74
2023/09/23 05:15:24;;;;;;;13.98;2.22;;;20.70;99.90;;;;;;6306719;22;20012;-74
2023/09/23 05:17:52;;;;;;;6.80;2.47;;;20.70;99.90;;;;;;6306961;22;20322;-73
2023/09/23 05:20:25;;;;;;;10.98;2.78;;;20.70;99.90;;;;;;6307277;22;20003;-74
2023/09/23 05:22:52;;;;;;;5.32;1.90;;;20.70;99.90;;;;;;6306697;22;20038;-74
2023/09/23 05:25:18;;;;;;;6.53;1.90;;;20.70;99.90;;;;;;6307419;22;20370;-74
2023/09/23 05:27:43;;;;;;;5.63;2.15;;;20.70;99.90;;;;;;6307190;22;19999;-74
2023/09/23 05:30:11;;;;;;;7.72;2.13;;;20.70;99.90;;;;;;6307147;22;19996;-74
2023/09/23 05:32:37;;;;;;;8.98;1.92;;;20.70;99.90;;;;;;6307167;22;20011;-73
2023/09/23 05:35:10;;;;;;;6.18;1.75;;;20.70;99.90;;;;;;6307111;22;20041;-73
2023/09/23 05:37:37;;;;;;;6.05;2.00;;;20.70;99.90;;;;;;6306790;22;20517;-74
2023/09/23 05:40:18;;;;;;;7.85;2.15;;;20.70;99.90;;;;;;6306753;22;20000;-72
2023/09/23 05:42:45;;;;;;;5.13;2.08;;;20.70;99.90;;;;;;6306699;22;20022;-74
2023/09/23 05:45:11;;;;;;;7.70;1.90;;;20.70;99.90;;;;;;6307008;22;20796;-73
2023/09/23 05:47:37;;;;;;;9.95;1.98;;;20.70;99.90;;;;;;6307083;22;20023;-74
2023/09/23 05:50:04;;;;;;;7.03;1.58;;;20.70;99.90;;;;;;6306356;22;20371;-73
2023/09/23 05:52:30;;;;;;;5.75;1.80;;;20.80;99.80;;;;;;6306530;22;20068;-74
2023/09/23 05:54:56;;;;;;;5.78;1.58;;;20.80;99.60;;;;;;6307023;22;19996;-74
2023/09/23 05:57:22;;;;;;;5.70;1.50;;;20.80;99.40;;;;;;6306691;22;20500;-75
2023/09/23 05:59:47;;;;;;;3.60;1.58;;;20.80;99.30;;;;;;6306266;22;20033;-75
2023/09/23 06:02:13;;;;;;;5.90;1.30;;;20.80;99.20;;;;;;6306754;22;20053;-75
2023/09/23 06:04:39;;;;;;;4.25;1.10;;;20.80;99.20;;;;;;6306759;22;19995;-75
2023/09/23 06:07:05;;;;;;;4.15;1.23;;;20.80;99.10;;;;;;6307064;22;20995;-72
2023/09/23 06:09:30;;;;;;;4.20;1.50;;;20.90;98.40;;;;;;6306809;22;19999;-74
2023/09/23 06:11:57;;;;;;;5.35;1.40;;;20.90;98.40;;;;;;6306657;22;20041;-75
2023/09/23 06:14:22;;;;;;;5.78;1.50;;;20.90;98.60;;;;;;6305949;22;20019;-74
2023/09/23 06:16:48;;;;;;;3.45;1.23;;;20.80;98.80;;;;;;6306350;22;19999;-75
2023/09/23 06:19:14;;;;;;;3.15;1.30;;;20.80;99.00;;;;;;6306563;22;19995;-73
2023/09/23 06:21:40;;;;;;;3.92;1.52;;;20.70;99.10;;;;;;6306511;22;20007;-75
2023/09/23 06:24:06;;;;;;;9.30;1.33;;;20.70;99.20;;;;;;6306148;22;19995;-73
2023/09/23 06:26:33;;;;;;;3.58;1.33;;;20.60;99.20;;;;;;6305183;22;20033;-70
2023/09/23 06:28:59;;;;;;;2.45;1.20;;;20.60;99.20;;;;;;6280269;22;20003;-73
2023/09/23 06:31:24;;;;;;;5.57;1.40;;;20.50;99.30;;;;;;6306635;22;20022;-73
2023/09/23 06:33:50;;;;;;;6.55;1.50;;;20.50;99.40;;;;;;6308126;22;20030;-75
2023/09/23 06:36:16;;;;;;;4.90;1.40;;;20.50;99.40;;;;;;6307862;22;19999;-73
2023/09/23 06:38:41;;;;;;;3.35;1.10;;;20.50;99.40;;;;;;6281039;22;20049;-74
2023/09/23 06:41:07;;;;;;;6.35;1.58;;;20.40;99.50;;;;;;6307952;22;20017;-74
2023/09/23 06:43:34;;;;;;;5.70;1.60;;;20.40;99.50;;;;;;6308686;22;20082;-73
2023/09/23 06:46:00;;;;;;;4.13;1.30;;;20.40;99.50;;;;;;6308818;22;20332;-75
2023/09/23 06:48:26;;;;;;;4.15;1.50;;;20.40;99.50;;;;;;6308215;22;19995;-74
2023/09/23 06:51:02;;;;;;;6.82;1.58;;;20.40;99.60;;;;;;6308000;22;20006;-75
2023/09/23 06:53:29;;;;;;;6.10;1.50;;;20.30;99.60;;;;;;6307945;22;20080;-75
2023/09/23 06:55:55;;;;;;;2.70;1.20;;;20.30;99.80;;;;;;6307911;22;20003;-73
2023/09/23 06:58:21;;;;;;;4.28;1.40;;;20.30;99.90;;;;;;6307568;22;20095;-76
2023/09/23 07:00:47;;;;;;;5.22;1.30;;;20.20;99.90;;;;;;6307503;22;19999;-75
2023/09/23 07:03:13;;;;;;;4.07;1.50;;;20.20;99.90;;;;;;6308108;22;20329;-75
2023/09/23 07:05:39;;;;;;;3.22;1.08;;;20.20;99.90;;;;;;6308187;22;20425;-75
2023/09/23 07:08:05;;;;;;;6.68;1.70;;;20.10;99.90;;;;;;6280053;22;20007;-75
2023/09/23 07:10:39;;;;;;;5.40;1.23;;;20.10;99.90;;;;;;6307477;22;20038;-73
2023/09/23 07:13:05;;;;;;;5.45;1.13;;;20.10;99.90;;;;;;6307237;22;20069;-75
2023/09/23 07:15:41;;;;;;;4.32;1.65;;;20.10;99.90;;;;;;6307866;22;20072;-74
2023/09/23 07:18:08;;;;;;;3.90;1.30;;;20.00;99.90;;;;;;6307308;22;20018;-75
2023/09/23 07:20:34;;;;;;;5.07;1.50;;;20.10;99.90;;;;;;6308020;22;20072;-75
2023/09/23 07:23:00;;;;;;;7.85;1.50;;;20.10;99.90;;;;;;6307667;22;19995;-75
2023/09/23 07:25:27;;;;;;;2.83;1.10;;;20.10;99.90;;;;;;6307290;22;20083;-75
2023/09/23 07:27:54;;;;;;;3.88;1.48;;;20.20;99.90;;;;;;6306410;22;19995;-75
2023/09/23 07:30:19;;;;;;;3.97;1.23;;;20.10;99.90;;;;;;6305005;22;19999;-75
2023/09/23 07:32:45;;;;;;;4.88;1.20;;;20.20;99.90;;;;;;6305842;22;20069;-75
2023/09/23 07:35:11;;;;;;;5.25;1.60;;;20.10;99.90;;;;;;6305498;22;20351;-75
2023/09/23 07:37:37;;;;;;;4.95;1.33;;;20.20;99.90;;;;;;6305382;22;20004;-75
2023/09/23 07:40:03;;;;;;;3.80;1.45;;;20.10;99.90;;;;;;6305317;22;20003;-75
2023/09/23 07:42:29;;;;;;;2.92;1.35;;;20.20;99.90;;;;;;6305454;22;20456;-74
2023/09/23 07:44:55;;;;;;;5.80;1.25;;;20.20;99.90;;;;;;6307337;22;19995;-74
2023/09/23 07:47:21;;;;;;;3.30;1.20;;;20.20;99.90;;;;;;6307614;22;20011;-74
2023/09/23 07:49:46;;;;;;;2.97;1.08;;;20.20;99.90;;;;;;6308202;22;20364;-75
2023/09/23 07:52:12;;;;;;;2.88;1.30;;;20.20;99.90;;;;;;6307863;22;20334;-75
2023/09/23 07:54:38;;;;;;;2.72;1.25;;;20.20;99.90;;;;;;6307720;22;19999;-75
2023/09/23 07:57:04;;;;;;;6.28;1.25;;;20.20;99.90;;;;;;6280558;22;20060;-75
2023/09/23 07:59:30;;;;;;;3.90;1.27;;;20.20;99.90;;;;;;6307939;22;20078;-75
2023/09/23 08:01:56;;;;;;;4.00;1.30;;;20.20;99.90;;;;;;6307948;22;20009;-75
2023/09/23 08:04:22;;;;;;;3.80;1.20;;;20.20;99.90;;;;;;6307854;22;20421;-75
2023/09/23 08:06:47;;;;;;;9.15;1.23;;;20.20;99.90;;;;;;6307752;22;20053;-74
2023/09/23 08:09:14;;;;;;;4.10;1.45;;;20.20;99.90;;;;;;6307866;22;20053;-75
2023/09/23 08:11:39;;;;;;;6.28;1.98;;;20.20;99.90;;;;;;6307595;22;20087;-75
2023/09/23 08:14:05;;;;;;;5.55;1.75;;;20.20;99.90;;;;;;6307586;22;20031;-74
2023/09/23 08:16:31;;;;;;;6.00;1.60;;;20.30;99.90;;;;;;6307641;22;20333;-74
2023/09/23 08:18:56;;;;;;;2.08;1.10;;;20.30;99.90;;;;;;6307905;22;20000;-75
2023/09/23 08:21:22;;;;;;;1.77;0.95;;;20.30;99.90;;;;;;6307721;22;20037;-74
2023/09/23 08:23:48;;;;;;;4.15;1.38;;;20.30;99.90;;;;;;6307492;22;20483;-75
2023/09/23 08:26:14;;;;;;;3.70;1.30;;;20.30;99.90;;;;;;6307130;22;19991;-75
2023/09/23 08:28:39;;;;;;;2.53;1.00;;;20.30;99.90;;;;;;6307481;22;19999;-72
2023/09/23 08:31:05;;;;;;;2.20;1.05;;;20.30;99.60;;;;;;6307349;22;20023;-75
2023/09/23 08:33:32;;;;;;;2.53;1.20;;;20.30;99.30;;;;;;6307821;22;20080;-75
2023/09/23 08:35:58;;;;;;;2.33;1.17;;;20.30;99.10;;;;;;6307468;22;20121;-75
2023/09/23 08:38:24;;;;;;;2.63;1.15;;;20.30;99.20;;;;;;6306963;22;20022;-75
2023/09/23 08:40:52;;;;;;;2.85;1.15;;;20.30;99.30;;;;;;6307486;22;20052;-76
2023/09/23 08:43:38;;;;;;;1.83;1.20;;;20.30;99.50;;;;;;6307575;22;20080;-75
2023/09/23 08:46:09;;;;;;;3.67;1.20;;;20.40;99.80;;;;;;6307508;22;20372;-76
2023/09/23 08:48:38;;;;;;;3.33;1.30;;;20.50;99.90;;;;;;6307679;22;20007;-73
2023/09/23 08:51:06;;;;;;;3.63;1.08;;;20.60;99.70;;;;;;6307278;22;19995;-75
2023/09/23 08:53:38;;;;;;;2.60;1.42;;;20.60;99.70;;;;;;6307401;22;20337;-76
2023/09/23 08:56:08;;;;;;;2.25;1.05;;;20.70;99.80;;;;;;6307263;22;20002;-75
2023/09/23 08:58:34;;;;;;;2.72;1.05;;;20.80;99.90;;;;;;6307392;22;20325;-74
2023/09/23 09:01:00;;;;;;;2.70;1.08;;;20.90;99.60;;;;;;6307283;22;20075;-75
2023/09/23 09:03:26;;;;;;;1.85;1.20;;;21.00;99.40;;;;;;6307341;22;20372;-76
2023/09/23 09:05:52;;;;;;;2.20;1.15;;;21.10;99.10;;;;;;6307535;22;20379;-75
2023/09/23 09:08:18;;;;;;;4.88;0.98;;;21.10;98.60;;;;;;6307554;22;20000;-75
2023/09/23 09:10:45;;;;;;;2.15;1.13;;;21.20;98.10;;;;;;6307192;22;20322;-75
2023/09/23 09:13:11;;;;;;;2.42;0.88;;;21.20;97.80;;;;;;6307303;22;20019;-74
2023/09/23 09:15:37;;;;;;;1.73;0.93;;;21.20;97.80;;;;;;6306968;22;20282;-75
2023/09/23 09:18:04;;;;;;;2.50;1.00;;;21.30;98.00;;;;;;6307222;22;20045;-75
2023/09/23 09:20:31;;;;;;;2.65;1.10;;;21.30;97.90;;;;;;6307177;22;20075;-74
2023/09/23 09:22:57;;;;;;;3.25;1.20;;;21.30;97.60;;;;;;6307062;22;20007;-75
2023/09/23 09:25:23;;;;;;;3.42;1.40;;;21.30;97.50;;;;;;6305009;22;20380;-75
2023/09/23 09:27:53;;;;;;;3.55;1.13;;;21.30;97.40;;;;;;6303750;22;20004;-74
2023/09/23 09:30:19;;;;;;;2.35;1.10;;;21.30;97.30;;;;;;6305059;22;19996;-75
2023/09/23 09:32:46;;;;;;;2.05;1.00;;;21.30;97.10;;;;;;6307169;22;20011;-75
2023/09/23 09:35:17;;;;;;;1.70;1.00;;;21.30;97.00;;;;;;6307170;22;19996;-74
2023/09/23 09:37:47;;;;;;;1.80;1.20;;;21.30;97.10;;;;;;6307315;22;20329;-75
2023/09/23 09:40:18;;;;;;;2.38;1.20;;;21.30;97.20;;;;;;6307335;22;20001;-75
2023/09/23 09:42:54;;;;;;;2.88;1.25;;;21.30;97.20;;;;;;6307232;22;20007;-75
2023/09/23 09:45:21;;;;;;;2.60;1.08;;;21.30;97.00;;;;;;6307046;22;20079;-74
2023/09/23 09:47:51;;;;;;;1.80;1.10;;;21.30;96.80;;;;;;6307142;22;20375;-74
2023/09/23 09:50:17;;;;;;;3.33;1.58;;;21.30;96.70;;;;;;6305081;22;20052;-74
2023/09/23 09:52:44;;;;;;;2.67;1.10;;;21.30;96.90;;;;;;6275937;22;20086;-74
2023/09/23 09:55:14;;;;;;;2.65;1.25;;;21.30;96.90;;;;;;6303411;22;20004;-74
2023/09/23 09:57:41;;;;;;;3.95;1.42;;;21.30;96.50;;;;;;6305975;22;20070;-74
2023/09/23 10:00:26;;;;;;;1.67;0.90;;;21.40;96.20;;;;;;6307103;22;20386;-74
2023/09/23 10:03:06;;;;;;;2.30;1.00;;;21.40;96.30;;;;;;6308773;22;20003;-74
2023/09/23 10:05:34;;;;;;;2.92;1.23;;;21.40;95.90;;;;;;6308392;22;20010;-75
2023/09/23 10:08:12;;;;;;;2.40;1.08;;;21.40;96.00;;;;;;6308684;22;20325;-73
2023/09/23 10:10:43;;;;;;;4.57;1.10;;;21.40;95.90;;;;;;6309076;22;20000;-74
2023/09/23 10:13:13;;;;;;;2.05;1.35;;;21.50;96.00;;;;;;6308450;22;20062;-75
2023/09/23 10:15:40;;;;;;;2.35;1.10;;;21.60;96.20;;;;;;6308427;22;20011;-74
2023/09/23 10:18:21;;;;;;;1.92;1.10;;;21.60;95.90;;;;;;6308731;22;20104;-75
2023/09/23 10:20:50;;;;;;;2.27;1.20;;;21.70;96.00;;;;;;6307889;22;20074;-75
2023/09/23 10:23:21;;;;;;;5.05;1.50;;;21.70;96.00;;;;;;6307298;22;20691;-74
2023/09/23 10:25:51;;;;;;;3.90;1.17;;;21.90;95.90;;;;;;6305746;22;20127;-74
2023/09/23 10:28:25;;;;;;;2.30;0.90;;;22.00;95.50;;;;;;6305549;22;20303;-74
2023/09/23 10:31:04;;;;;;;3.17;1.17;;;22.00;95.10;;;;;;6306908;22;20003;-75
2023/09/23 10:33:34;;;;;;;6.45;1.40;;;22.10;94.60;;;;;;6306549;22;20003;-74
2023/09/23 10:36:01;;;;;;;1.42;1.13;;;22.10;94.40;;;;;;6306802;22;19995;-73
2023/09/23 10:38:31;;;;;;;1.98;1.08;;;22.10;94.40;;;;;;6306263;22;19999;-75
2023/09/23 10:40:57;;;;;;;1.67;1.15;;;22.10;94.40;;;;;;6307732;22;20034;-75
2023/09/23 10:43:23;;;;;;;2.33;1.15;;;22.20;94.50;;;;;;6307775;22;20422;-75
2023/09/23 10:45:53;;;;;;;2.45;1.00;;;22.30;94.50;;;;;;6308273;22;20045;-75
2023/09/23 10:48:19;;;;;;;2.03;1.02;;;22.30;94.40;;;;;;6308097;22;20010;-75
2023/09/23 10:50:45;;;;;;;3.08;1.20;;;22.40;94.30;;;;;;6307782;22;20404;-76
2023/09/23 10:53:12;;;;;;;2.58;1.27;;;22.50;94.30;;;;;;6306606;22;20073;-76
2023/09/23 10:55:41;;;;;;;2.08;1.10;;;22.50;94.40;;;;;;6304946;22;20002;-74
2023/09/23 10:58:08;;;;;;;2.90;1.17;;;22.60;94.50;;;;;;6303439;22;20010;-75
2023/09/23 11:00:36;;;;;;;1.83;1.02;;;22.70;94.50;;;;;;6304912;22;20003;-75
2023/09/23 11:03:37;;;;;;;1.88;0.95;;;22.80;93.90;;;;;;6306250;22;20048;-76
2023/09/23 11:06:04;;;;;;;3.70;0.85;;;22.90;93.30;;;;;;6286572;22;20010;-75
2023/09/23 11:08:30;;;;;;;2.92;1.30;;;23.00;93.10;;;;;;6307984;22;20078;-74
2023/09/23 11:10:57;;;;;;;2.83;1.25;;;23.10;93.40;;;;;;6308351;22;20033;-75
2023/09/23 11:13:25;;;;;;;2.10;1.02;;;23.20;93.40;;;;;;6307852;22;20007;-74
2023/09/23 11:15:51;;;;;;;1.75;1.13;;;23.20;93.30;;;;;;6308076;22;20014;-75
2023/09/23 11:18:17;;;;;;;2.15;1.30;;;23.30;92.80;;;;;;6308083;22;19995;-74
2023/09/23 11:20:45;;;;;;;2.80;1.10;;;23.30;92.20;;;;;;6307821;22;20003;-75
2023/09/23 11:23:12;;;;;;;1.98;1.10;;;23.40;92.00;;;;;;6280293;22;20014;-75
2023/09/23 11:25:44;;;;;;;3.63;1.25;;;23.40;91.40;;;;;;6303880;22;20009;-75
2023/09/23 11:28:21;;;;;;;1.58;0.90;;;23.50;91.40;;;;;;6304270;22;20119;-74
2023/09/23 11:30:48;;;;;;;2.03;1.00;;;23.50;91.10;;;;;;6307501;22;20421;-74
2023/09/23 11:33:14;;;;;;;1.60;0.90;;;23.50;90.90;;;;;;6307793;22;20086;-75
2023/09/23 11:35:41;;;;;;;2.88;1.00;;;23.50;90.60;;;;;;6307780;22;19996;-74
2023/09/23 11:38:08;;;;;;;3.72;1.17;;;23.60;90.70;;;;;;6307948;22;19999;-74
2023/09/23 11:40:37;;;;;;;1.20;1.00;;;23.60;90.60;;;;;;6307946;22;20004;-75
2023/09/23 11:43:03;;;;;;;2.63;1.00;;;23.60;90.60;;;;;;6308024;22;19999;-75
2023/09/23 11:45:29;;;;;;;3.22;1.20;;;23.60;89.70;;;;;;6305317;22;20003;-74
2023/09/23 11:47:56;;;;;;;1.40;0.70;;;23.60;89.40;;;;;;6304521;22;20432;-74
2023/09/23 11:50:23;;;;;;;1.80;0.80;;;23.70;87.20;;;;;;6304515;22;20437;-74
2023/09/23 11:52:49;;;;;;;2.35;0.80;;;23.60;87.10;;;;;;6307208;22;20073;-73
2023/09/23 11:55:16;;;;;;;1.10;0.60;;;23.60;87.70;;;;;;6307771;22;19996;-73
2023/09/23 11:57:42;;;;;;;2.03;0.95;;;23.60;86.50;;;;;;6307849;22;20081;-73
2023/09/23 12:00:10;;;;;;;1.92;0.95;;;23.60;86.70;;;;;;6307022;22;20026;-73
2023/09/23 12:02:40;;;;;;;0.60;0.50;;;23.60;85.80;;;;;;6307724;22;20078;-74
2023/09/23 12:05:08;;;;;;;2.78;0.80;;;23.60;85.40;;;;;;6280236;22;20002;-75
2023/09/23 12:07:37;;;;;;;1.52;0.88;;;23.50;85.00;;;;;;6307328;22;20437;-74
2023/09/23 12:10:03;;;;;;;5.57;1.38;;;23.50;84.50;;;;;;6307988;22;20381;-74
2023/09/23 12:12:30;;;;;;;1.58;0.75;;;23.50;85.30;;;;;;6307125;22;20444;-73
2023/09/23 12:14:55;;;;;;;2.08;0.90;;;23.40;85.00;;;;;;6307100;22;20011;-74
2023/09/23 12:17:21;;;;;;;1.88;1.00;;;23.40;85.30;;;;;;6307208;22;20000;-76
2023/09/23 12:19:47;;;;;;;2.35;1.00;;;23.30;86.00;;;;;;6307047;22;20075;-75
2023/09/23 12:22:15;;;;;;;1.83;0.80;;;23.40;86.40;;;;;;6306694;22;20025;-75
2023/09/23 12:24:42;;;;;;;1.23;0.88;;;23.30;86.50;;;;;;6307189;22;20002;-74
2023/09/23 12:27:08;;;;;;;2.55;0.90;;;23.40;87.00;;;;;;6306872;22;20372;-75
2023/09/23 12:29:34;;;;;;;3.10;1.00;;;23.40;87.40;;;;;;6307037;22;20070;-75
2023/09/23 12:32:00;;;;;;;1.00;0.82;;;23.40;87.30;;;;;;6306710;22;20022;-74
2023/09/23 12:34:29;;;;;;;3.03;0.95;;;23.40;87.70;;;;;;6307075;22;19999;-75
2023/09/23 12:36:55;;;;;;;2.10;1.00;;;23.40;86.30;;;;;;6307261;22;20454;-75
2023/09/23 12:39:22;;;;;;;1.45;0.80;;;23.50;85.50;;;;;;6276056;22;20033;-75
2023/09/23 12:41:49;;;;;;;1.27;0.80;;;23.50;85.70;;;;;;6303476;22;20007;-74
2023/09/23 12:44:15;;;;;;;1.30;0.85;;;23.50;86.50;;;;;;6277004;22;20298;-73
2023/09/23 12:46:40;;;;;;;1.83;0.88;;;23.60;86.50;;;;;;6307144;22;20003;-73